Round Rock, TX

8:50 AM CST on December 27, 2014 (GMT -0600)
Austin | Change Station
CLOSE
Current Station
Airport
Location: Austin,
Elevation: 656 ft
Nearby Weather Stations

Elev 656 ft 30.32 °N, 97.76 °W | Updated 59 minutes ago

Overcast
Overcast
54 °F
Feels Like 54 °F
N
14
Wind Variable Wind from North
Gusts 21 mph

Today
High -- | Low -- °F
--% Chance of Precip.
Yesterday
High -- | Low -- °F
Precip. -- in
7:26 AM 5:37 PM
Waxing Crescent, 37% visible
Pressure 30.06 in
Visibility 10.0 miles
Clouds Few 1600 ft
Overcast 2200 ft
Dew Point 50 °F
Humidity 86%
Rainfall 0.00 in
Snow Depth Not available.
UV 0 out of 12
Pollen 8.80 out of 12
Air Quality Not available.
Flu Activity Not available.
METAR KATT 271351Z AUTO 36012G18KT 10SM -RA FEW016 OVC022 12/10 A3006 RMK AO2 RAB14E31B44 SLP178 P0000 T01220100

More Conditions Fewer Conditions

Pressure 30.06 in
Visibility 10.0 miles
Clouds Few 1600 ft
Overcast 2200 ft
Dew Point 50 °F
Humidity 86%
Rainfall 0.00 in
Snow Depth Not available.
UV 0 out of 12
Pollen 8.80 out of 12
Air Quality Not available.
Flu Activity Not available.
METAR KATT 271351Z AUTO 36012G18KT 10SM -RA FEW016 OVC022 12/10 A3006 RMK AO2 RAB14E31B44 SLP178 P0000 T01220100

More Conditions Fewer Conditions

Nowcast | as of 7:45 am CST on December 27, 2014

Through 10 am...a cold front across The Hill Country and central Texas will continue to move south through south-central Texas. Expect falling temperatures behind the front into the mid and upper 40s across The Hill Country and central Texas...and upper 40s to low 50s elsewhere. Patchy light rain and isolated showers will also continue along and east of Interstate 35. A brief moderate to heavy downpour will be possible along and east of a Lexington to Cuero line. If traveling this morning be alert for slick roads.

×

10-Day Weather Forecast

Almanac

Astronomy

Dec. 27, 2014 Rise Set
Actual Time
Civil Twilight
Nautical Twilight
Astronomical Twilight
Moon
Length of Visible Light
Length of Day
Tomorrow will be .
, % of the Moon is Illuminated

Today's Extremes

State Highs State Lows

Community

WunderPhotos

Upload Photos

1,780,918 photos uploaded!

WunderBlogs® & News

Nearby

Air Quality

  Air Quality AQ Index Pollutant
Not available.

Snow Depth

Station Depth Elevation

Earthquake Activity

City Distance Mag. Time & Date
Minimum magnitude displayed is 2.5.

Coastal Water Temperatures

Place Temperature

Nearby Weather Stations